createdAt,value
2018-02-09T00:00:02.448Z,778.62
2018-02-09T00:00:06.362Z,778.61
2018-02-09T00:00:10.149Z,778.6
2018-02-09T00:00:14.042Z,778.62
2018-02-09T00:00:17.826Z,778.64
2018-02-09T00:00:21.714Z,778.61
2018-02-09T00:00:25.500Z,778.65
2018-02-09T00:00:29.292Z,778.61
2018-02-09T00:00:32.983Z,778.63
2018-02-09T00:00:36.772Z,778.59
2018-02-09T00:00:40.562Z,778.59
2018-02-09T00:00:44.672Z,778.61
2018-02-09T00:00:48.667Z,778.62
2018-02-09T00:00:52.563Z,778.61
2018-02-09T00:00:56.455Z,778.62
2018-02-09T00:01:00.350Z,778.62
2018-02-09T00:01:04.349Z,778.65
2018-02-09T00:01:08.354Z,778.61
2018-02-09T00:01:12.363Z,778.57
2018-02-09T00:01:16.163Z,778.62
2018-02-09T00:01:20.054Z,778.63
2018-02-09T00:01:24.060Z,778.61
2018-02-09T00:01:27.850Z,778.6
2018-02-09T00:01:31.640Z,778.61
2018-02-09T00:01:35.547Z,778.59
2018-02-09T00:01:39.547Z,778.59
2018-02-09T00:01:43.445Z,778.58
2018-02-09T00:01:47.235Z,778.57
2018-02-09T00:01:51.337Z,778.58
2018-02-09T00:01:55.446Z,778.59
2018-02-09T00:01:59.442Z,778.57
2018-02-09T00:02:03.448Z,778.56
2018-02-09T00:02:07.344Z,778.57
2018-02-09T00:02:11.450Z,778.6
2018-02-09T00:02:15.352Z,778.59
2018-02-09T00:02:19.470Z,778.61
2018-02-09T00:02:23.463Z,778.6
2018-02-09T00:02:27.472Z,778.54
2018-02-09T00:02:31.365Z,778.55
2018-02-09T00:02:35.367Z,778.57
2018-02-09T00:02:39.263Z,778.55
2018-02-09T00:02:43.370Z,778.53
2018-02-09T00:02:47.261Z,778.57
2018-02-09T00:02:51.363Z,778.48
2018-02-09T00:02:55.042Z,778.47
2018-02-09T00:02:58.946Z,778.5
2018-02-09T00:03:02.733Z,778.52
2018-02-09T00:03:06.517Z,778.5
2018-02-09T00:03:10.309Z,778.51
2018-02-09T00:03:14.097Z,778.55
2018-02-09T00:03:18.099Z,778.53
2018-02-09T00:03:21.887Z,778.5
2018-02-09T00:03:25.781Z,778.53
2018-02-09T00:03:29.466Z,778.49
2018-02-09T00:03:33.357Z,778.48
2018-02-09T00:03:37.247Z,778.5
2018-02-09T00:03:41.357Z,778.5
2018-02-09T00:03:45.460Z,778.47
2018-02-09T00:03:49.144Z,778.51
2018-02-09T00:03:53.160Z,778.48
2018-02-09T00:03:57.369Z,778.45
2018-02-09T00:04:01.271Z,778.43
2018-02-09T00:04:04.956Z,778.46
2018-02-09T00:04:09.063Z,778.43
2018-02-09T00:04:12.744Z,778.47
2018-02-09T00:04:16.427Z,778.44
2018-02-09T00:04:20.219Z,778.45
2018-02-09T00:04:24.218Z,778.45
2018-02-09T00:04:27.907Z,778.43
2018-02-09T00:04:31.910Z,778.39
2018-02-09T00:04:36.015Z,778.41
2018-02-09T00:04:40.114Z,778.37
2018-02-09T00:04:44.004Z,778.37
2018-02-09T00:04:47.893Z,778.44
2018-02-09T00:04:51.886Z,778.42
2018-02-09T00:04:55.995Z,778.43
2018-02-09T00:04:59.890Z,778.4
2018-02-09T00:05:03.775Z,778.4
2018-02-09T00:05:07.766Z,778.39
2018-02-09T00:05:11.551Z,778.38
2018-02-09T00:05:15.341Z,778.39
2018-02-09T00:05:19.236Z,778.37
2018-02-09T00:05:23.338Z,778.37
2018-02-09T00:05:27.128Z,778.39
2018-02-09T00:05:31.027Z,778.36
2018-02-09T00:05:34.923Z,778.35
2018-02-09T00:05:38.919Z,778.37
2018-02-09T00:05:42.703Z,778.38
2018-02-09T00:05:46.703Z,778.36
2018-02-09T00:05:50.597Z,778.33
2018-02-09T00:05:54.382Z,778.35
2018-02-09T00:05:58.169Z,778.31
2018-02-09T00:06:02.520Z,778.35
2018-02-09T00:06:06.416Z,778.34
2018-02-09T00:06:10.307Z,778.32
2018-02-09T00:06:14.310Z,778.31
2018-02-09T00:06:18.206Z,778.33
2018-02-09T00:06:21.995Z,778.3
2018-02-09T00:06:26.001Z,778.34
2018-02-09T00:06:29.891Z,778.3
2018-02-09T00:06:33.682Z,778.31
2018-02-09T00:06:37.571Z,778.29
2018-02-09T00:06:41.255Z,778.32
2018-02-09T00:06:45.047Z,778.33
2018-02-09T00:06:48.828Z,778.31
2018-02-09T00:06:52.617Z,778.32
2018-02-09T00:06:56.615Z,778.31
2018-02-09T00:07:00.509Z,778.27
2018-02-09T00:07:04.656Z,778.28
2018-02-09T00:07:08.453Z,778.28
2018-02-09T00:07:12.451Z,778.29
2018-02-09T00:07:16.344Z,778.27
2018-02-09T00:07:20.337Z,778.3
2018-02-09T00:07:24.545Z,778.29
2018-02-09T00:07:28.542Z,778.28
2018-02-09T00:07:32.431Z,778.27
2018-02-09T00:07:36.219Z,778.25
2018-02-09T00:07:40.216Z,778.26
2018-02-09T00:07:44.001Z,778.29
2018-02-09T00:07:48.110Z,778.26
2018-02-09T00:07:52.004Z,778.26
2018-02-09T00:07:55.901Z,778.27
2018-02-09T00:07:59.898Z,778.24
2018-02-09T00:08:03.884Z,778.24
2018-02-09T00:08:07.670Z,778.23
2018-02-09T00:08:11.669Z,778.22
2018-02-09T00:08:15.456Z,778.22
2018-02-09T00:08:19.247Z,778.23
2018-02-09T00:08:23.140Z,778.2
2018-02-09T00:08:27.140Z,778.19
2018-02-09T00:08:31.030Z,778.21
2018-02-09T00:08:34.813Z,778.18
2018-02-09T00:08:38.601Z,778.2
2018-02-09T00:08:42.496Z,778.18
2018-02-09T00:08:46.491Z,778.13
2018-02-09T00:08:50.391Z,778.09
2018-02-09T00:08:54.078Z,778.13
2018-02-09T00:08:57.971Z,778.09
2018-02-09T00:09:01.987Z,778.15
2018-02-09T00:09:05.881Z,778.12
2018-02-09T00:09:09.836Z,778.11
2018-02-09T00:09:13.734Z,778.1
2018-02-09T00:09:17.624Z,778.14
2018-02-09T00:09:21.417Z,778.13
2018-02-09T00:09:25.416Z,778.15
2018-02-09T00:09:29.417Z,778.1
2018-02-09T00:09:33.311Z,778.11
2018-02-09T00:09:37.420Z,778.09
2018-02-09T00:09:41.356Z,778.1
2018-02-09T00:09:45.301Z,778.1
2018-02-09T00:09:49.199Z,778.12
2018-02-09T00:09:53.095Z,778.1
2018-02-09T00:09:57.100Z,778.08
2018-02-09T00:10:00.996Z,778.1
2018-02-09T00:10:05.036Z,778.1
2018-02-09T00:10:08.720Z,778.1
2018-02-09T00:10:12.625Z,778.11
2018-02-09T00:10:16.628Z,778.11
2018-02-09T00:10:20.521Z,778.08
2018-02-09T00:10:24.417Z,778.12
2018-02-09T00:10:28.624Z,778.07
2018-02-09T00:10:32.405Z,778.1
2018-02-09T00:10:36.090Z,778.07
2018-02-09T00:10:40.138Z,778.07
2018-02-09T00:10:43.820Z,778.07
2018-02-09T00:10:47.817Z,778.09
2018-02-09T00:10:51.706Z,778.08
2018-02-09T00:10:55.398Z,778.06
2018-02-09T00:10:59.184Z,778.07
2018-02-09T00:11:03.277Z,778.07
2018-02-09T00:11:07.068Z,778.08
2018-02-09T00:11:10.957Z,778.07
2018-02-09T00:11:14.846Z,778.04
2018-02-09T00:11:18.528Z,778.05
2018-02-09T00:11:22.317Z,778.05
2018-02-09T00:11:26.315Z,778.01
2018-02-09T00:11:30.316Z,778.02
2018-02-09T00:11:34.335Z,778.01
2018-02-09T00:11:38.237Z,778.01
2018-02-09T00:11:42.135Z,777.97
2018-02-09T00:11:45.919Z,777.98
2018-02-09T00:11:49.918Z,778.02
2018-02-09T00:11:53.597Z,778
2018-02-09T00:11:57.388Z,778.07
2018-02-09T00:12:01.491Z,778.06
2018-02-09T00:12:05.634Z,778.05
2018-02-09T00:12:09.522Z,778.08
2018-02-09T00:12:13.206Z,777.99
2018-02-09T00:12:17.205Z,778.02
2018-02-09T00:12:20.886Z,778.03
2018-02-09T00:12:24.891Z,778.03
2018-02-09T00:12:28.780Z,778.03
2018-02-09T00:12:32.566Z,777.99
2018-02-09T00:12:36.357Z,778
2018-02-09T00:12:40.354Z,777.99
2018-02-09T00:12:44.148Z,778
2018-02-09T00:12:48.037Z,778
2018-02-09T00:12:51.822Z,778
2018-02-09T00:12:55.718Z,778.03
2018-02-09T00:12:59.833Z,777.99
2018-02-09T00:13:03.880Z,778.06
2018-02-09T00:13:07.775Z,778.09
2018-02-09T00:13:11.568Z,778.02
2018-02-09T00:13:15.466Z,778.05
2018-02-09T00:13:19.464Z,778.05
2018-02-09T00:13:23.463Z,778.06
2018-02-09T00:13:27.263Z,778.02
2018-02-09T00:13:31.055Z,778.05
2018-02-09T00:13:34.841Z,778.03
2018-02-09T00:13:38.732Z,778.02
2018-02-09T00:13:42.618Z,778.05
2018-02-09T00:13:46.411Z,778.05
2018-02-09T00:13:50.199Z,778.05
2018-02-09T00:13:53.994Z,778.03
2018-02-09T00:13:57.887Z,778.02
2018-02-09T00:14:01.669Z,778.02
2018-02-09T00:14:05.763Z,778.03
2018-02-09T00:14:09.657Z,778.03
2018-02-09T00:14:13.553Z,778.01
2018-02-09T00:14:17.556Z,778.02
2018-02-09T00:14:21.450Z,778.03
2018-02-09T00:14:25.346Z,778
2018-02-09T00:14:29.246Z,777.99
2018-02-09T00:14:33.147Z,777.98
2018-02-09T00:14:37.049Z,778
2018-02-09T00:14:40.948Z,777.99
2018-02-09T00:14:44.848Z,777.95
2018-02-09T00:14:48.748Z,777.97
2018-02-09T00:14:52.645Z,778.01
2018-02-09T00:14:56.534Z,777.99
2018-02-09T00:15:00.531Z,777.99
2018-02-09T00:15:04.571Z,777.97
2018-02-09T00:15:08.363Z,777.98
2018-02-09T00:15:12.256Z,777.98
2018-02-09T00:15:15.942Z,777.97
2018-02-09T00:15:19.627Z,778.01
2018-02-09T00:15:23.469Z,778.02
2018-02-09T00:15:27.568Z,778.05
2018-02-09T00:15:31.461Z,778.04
2018-02-09T00:15:35.563Z,778.05
2018-02-09T00:15:39.461Z,778.05
2018-02-09T00:15:43.150Z,778.03
2018-02-09T00:15:47.138Z,778.04
2018-02-09T00:15:51.035Z,778.07
2018-02-09T00:15:54.828Z,778.07
2018-02-09T00:15:58.825Z,778.01
2018-02-09T00:16:02.827Z,778.03
2018-02-09T00:16:06.820Z,778.03
2018-02-09T00:16:10.613Z,778.02
2018-02-09T00:16:14.610Z,778.03
2018-02-09T00:16:18.399Z,778.04
2018-02-09T00:16:22.298Z,778.04
2018-02-09T00:16:26.192Z,778.06
2018-02-09T00:16:29.985Z,778.06
2018-02-09T00:16:33.998Z,778.05
2018-02-09T00:16:37.678Z,778.06
2018-02-09T00:16:41.567Z,778.05
2018-02-09T00:16:45.458Z,778.06
2018-02-09T00:16:49.460Z,778.08
2018-02-09T00:16:53.250Z,778.05
2018-02-09T00:16:57.248Z,778.06
2018-02-09T00:17:01.243Z,778.06
2018-02-09T00:17:05.193Z,778.08
2018-02-09T00:17:08.977Z,778.05
2018-02-09T00:17:12.873Z,778.05
2018-02-09T00:17:16.662Z,778.03
2018-02-09T00:17:20.452Z,778.04
2018-02-09T00:17:24.348Z,778.05
2018-02-09T00:17:28.452Z,778.05
2018-02-09T00:17:32.351Z,778.03
2018-02-09T00:17:36.243Z,778.05
2018-02-09T00:17:40.137Z,778.05
2018-02-09T00:17:44.135Z,778.05
2018-02-09T00:17:48.131Z,778.01
2018-02-09T00:17:51.919Z,778.03
2018-02-09T00:17:55.813Z,778.03
2018-02-09T00:17:59.605Z,778.06
2018-02-09T00:18:03.500Z,778.04
2018-02-09T00:18:07.285Z,778.06
2018-02-09T00:18:11.084Z,778.05
2018-02-09T00:18:14.869Z,778.03
2018-02-09T00:18:18.866Z,778.03
2018-02-09T00:18:22.866Z,778.03
2018-02-09T00:18:26.649Z,778.04
2018-02-09T00:18:30.437Z,778.04
2018-02-09T00:18:34.224Z,778.07
2018-02-09T00:18:38.119Z,778.08
2018-02-09T00:18:42.019Z,778.05
2018-02-09T00:18:46.014Z,778.03
2018-02-09T00:18:50.016Z,778.07
2018-02-09T00:18:53.907Z,778.05
2018-02-09T00:18:57.902Z,778.04
2018-02-09T00:19:01.990Z,778.04
2018-02-09T00:19:05.886Z,778.03
2018-02-09T00:19:09.783Z,778.05
2018-02-09T00:19:13.783Z,778.05
2018-02-09T00:19:17.680Z,778.05
2018-02-09T00:19:21.786Z,778.02
2018-02-09T00:19:25.785Z,778.02
2018-02-09T00:19:29.781Z,778.03
2018-02-09T00:19:33.574Z,778.07
2018-02-09T00:19:37.577Z,778.07
2018-02-09T00:19:41.262Z,778.04
2018-02-09T00:19:45.256Z,778.03
2018-02-09T00:19:49.249Z,778.04
2018-02-09T00:19:53.247Z,778.06
2018-02-09T00:19:57.248Z,778.03
2018-02-09T00:20:01.253Z,778.04
2018-02-09T00:20:05.255Z,778.05
2018-02-09T00:20:09.150Z,778.04
2018-02-09T00:20:13.047Z,778.05
2018-02-09T00:20:17.298Z,778.05
2018-02-09T00:20:21.291Z,778.07
2018-02-09T00:20:25.079Z,778.05
2018-02-09T00:20:29.181Z,778.08
2018-02-09T00:20:32.866Z,778.05
2018-02-09T00:20:36.865Z,778.04
2018-02-09T00:20:40.764Z,778.08
2018-02-09T00:20:44.557Z,778.05
2018-02-09T00:20:48.453Z,778.06
2018-02-09T00:20:52.357Z,778.08
2018-02-09T00:20:56.156Z,778.05
2018-02-09T00:21:00.048Z,778.03
2018-02-09T00:21:04.001Z,778.05
2018-02-09T00:21:07.894Z,778.03
2018-02-09T00:21:11.895Z,778.07
2018-02-09T00:21:15.900Z,778.09
2018-02-09T00:21:19.896Z,778.08
2018-02-09T00:21:24.013Z,778.04
2018-02-09T00:21:27.798Z,778.1
2018-02-09T00:21:31.691Z,778.1
2018-02-09T00:21:35.580Z,778.08
2018-02-09T00:21:39.375Z,778.09
2018-02-09T00:21:43.167Z,778.11
2018-02-09T00:21:46.858Z,778.1
2018-02-09T00:21:50.861Z,778.12
2018-02-09T00:21:54.756Z,778.1
2018-02-09T00:21:58.862Z,778.09
2018-02-09T00:22:02.656Z,778.09
2018-02-09T00:22:06.655Z,778.1
2018-02-09T00:22:10.339Z,778.12
2018-02-09T00:22:14.290Z,778.12
2018-02-09T00:22:18.349Z,778.13
2018-02-09T00:22:22.401Z,778.13
2018-02-09T00:22:26.398Z,778.12
2018-02-09T00:22:30.394Z,778.15
2018-02-09T00:22:34.284Z,778.14
2018-02-09T00:22:38.175Z,778.13
2018-02-09T00:22:41.969Z,778.14
2018-02-09T00:22:45.760Z,778.15
2018-02-09T00:22:49.560Z,778.16
2018-02-09T00:22:53.453Z,778.14
2018-02-09T00:22:57.343Z,778.16
2018-02-09T00:23:01.241Z,778.15
2018-02-09T00:23:05.077Z,778.15
2018-02-09T00:23:08.762Z,778.13
2018-02-09T00:23:12.767Z,778.12
2018-02-09T00:23:16.664Z,778.13
2018-02-09T00:23:20.660Z,778.15
2018-02-09T00:23:24.548Z,778.15
2018-02-09T00:23:28.334Z,778.15
2018-02-09T00:23:32.227Z,778.14
2018-02-09T00:23:36.232Z,778.16
2018-02-09T00:23:40.441Z,778.11
2018-02-09T00:23:44.336Z,778.15
2018-02-09T00:23:48.333Z,778.09
2018-02-09T00:23:52.225Z,778.12
2018-02-09T00:23:55.908Z,778.08
2018-02-09T00:23:59.796Z,778.09
2018-02-09T00:24:03.843Z,778.09
2018-02-09T00:24:07.845Z,778.13
2018-02-09T00:24:11.850Z,778.15
2018-02-09T00:24:15.635Z,778.16
2018-02-09T00:24:19.429Z,778.16
2018-02-09T00:24:23.429Z,778.14
2018-02-09T00:24:27.329Z,778.15
2018-02-09T00:24:31.223Z,778.16
2018-02-09T00:24:35.124Z,778.16
2018-02-09T00:24:39.024Z,778.11
2018-02-09T00:24:42.925Z,778.14
2018-02-09T00:24:46.720Z,778.13
2018-02-09T00:24:50.398Z,778.18
2018-02-09T00:24:54.292Z,778.14
2018-02-09T00:24:58.397Z,778.17
2018-02-09T00:25:02.339Z,778.14
2018-02-09T00:25:06.238Z,778.14
2018-02-09T00:25:10.339Z,778.15
2018-02-09T00:25:14.338Z,778.17
2018-02-09T00:25:18.126Z,778.13
2018-02-09T00:25:22.027Z,778.14
2018-02-09T00:25:26.025Z,778.14
2018-02-09T00:25:29.921Z,778.14
2018-02-09T00:25:33.917Z,778.11
2018-02-09T00:25:37.912Z,778.11
2018-02-09T00:25:41.814Z,778.13
2018-02-09T00:25:46.024Z,778.14
2018-02-09T00:25:49.918Z,778.09
2018-02-09T00:25:53.811Z,778.1
2018-02-09T00:25:58.026Z,778.13
2018-02-09T00:26:02.157Z,778.11
2018-02-09T00:26:05.837Z,778.09
2018-02-09T00:26:09.836Z,778.14
2018-02-09T00:26:13.736Z,778.09
2018-02-09T00:26:17.733Z,778.12
2018-02-09T00:26:21.517Z,778.13
2018-02-09T00:26:25.407Z,778.11
2018-02-09T00:26:29.622Z,778.09
2018-02-09T00:26:33.728Z,778.03
2018-02-09T00:26:37.520Z,778.07
2018-02-09T00:26:41.416Z,778.05
2018-02-09T00:26:45.209Z,778.09
2018-02-09T00:26:49.212Z,778.06
2018-02-09T00:26:53.317Z,778.05
2018-02-09T00:26:57.422Z,778.03
2018-02-09T00:27:01.524Z,778.06
2018-02-09T00:27:05.415Z,778.08
2018-02-09T00:27:09.418Z,778.08
2018-02-09T00:27:13.422Z,778.06
2018-02-09T00:27:17.426Z,778.08
2018-02-09T00:27:21.724Z,778.1
2018-02-09T00:27:25.512Z,778.13
2018-02-09T00:27:29.297Z,778.12
2018-02-09T00:27:33.290Z,778.11
2018-02-09T00:27:37.290Z,778.11
2018-02-09T00:27:40.986Z,778.11
2018-02-09T00:27:44.995Z,778.08
2018-02-09T00:27:49.316Z,778.09
2018-02-09T00:27:53.218Z,778.08
2018-02-09T00:27:57.114Z,778.1
2018-02-09T00:28:00.909Z,778.07
2018-02-09T00:28:04.698Z,778.11
2018-02-09T00:28:08.702Z,778.1
2018-02-09T00:28:12.813Z,778.12
2018-02-09T00:28:16.916Z,778.15
2018-02-09T00:28:20.817Z,778.13
2018-02-09T00:28:24.817Z,778.14
2018-02-09T00:28:28.817Z,778.15
2018-02-09T00:28:32.822Z,778.09
2018-02-09T00:28:36.709Z,778.1
2018-02-09T00:28:40.391Z,778.13
2018-02-09T00:28:44.075Z,778.1
2018-02-09T00:28:47.966Z,778.09
2018-02-09T00:28:51.756Z,778.09
2018-02-09T00:28:55.646Z,778.12
2018-02-09T00:28:59.647Z,778.13
2018-02-09T00:29:03.742Z,778.11
2018-02-09T00:29:07.749Z,778.15
2018-02-09T00:29:11.744Z,778.12
2018-02-09T00:29:15.634Z,778.12
2018-02-09T00:29:19.425Z,778.09
2018-02-09T00:29:23.530Z,778.14
2018-02-09T00:29:27.428Z,778.17
2018-02-09T00:29:31.323Z,778.15
2018-02-09T00:29:35.542Z,778.16
2018-02-09T00:29:39.332Z,778.13
2018-02-09T00:29:43.440Z,778.12
2018-02-09T00:29:47.483Z,778.13
2018-02-09T00:29:51.270Z,778.13
2018-02-09T00:29:55.051Z,778.12
2018-02-09T00:29:59.046Z,778.14
2018-02-09T00:30:02.834Z,778.12
2018-02-09T00:30:06.726Z,778.13
2018-02-09T00:30:10.937Z,778.13
2018-02-09T00:30:14.723Z,778.15
2018-02-09T00:30:18.515Z,778.11
2018-02-09T00:30:22.414Z,778.07
2018-02-09T00:30:26.309Z,778.07
2018-02-09T00:30:30.319Z,778.1
2018-02-09T00:30:34.109Z,778.08
2018-02-09T00:30:37.895Z,778.12
2018-02-09T00:30:41.822Z,778.13
2018-02-09T00:30:45.683Z,778.09
2018-02-09T00:30:49.678Z,778.09
2018-02-09T00:30:53.464Z,778.13
2018-02-09T00:30:57.463Z,778.1
2018-02-09T00:31:01.250Z,778.07
2018-02-09T00:31:05.137Z,778.09
2018-02-09T00:31:08.973Z,778.11
2018-02-09T00:31:12.869Z,778.09
2018-02-09T00:31:16.554Z,778.07
2018-02-09T00:31:20.557Z,778.06
2018-02-09T00:31:24.770Z,778.05
2018-02-09T00:31:28.770Z,778.08
2018-02-09T00:31:32.775Z,778.06
2018-02-09T00:31:36.566Z,778.09
2018-02-09T00:31:40.560Z,778.06
2018-02-09T00:31:44.456Z,778.05
2018-02-09T00:31:48.242Z,778.07
2018-02-09T00:31:52.135Z,778.05
2018-02-09T00:31:56.036Z,778.05
2018-02-09T00:31:59.924Z,778.06
2018-02-09T00:32:03.968Z,778.02
2018-02-09T00:32:07.868Z,778.07
2018-02-09T00:32:11.763Z,778.03
2018-02-09T00:32:15.764Z,778.01
2018-02-09T00:32:19.759Z,778
2018-02-09T00:32:23.963Z,778.01
2018-02-09T00:32:27.751Z,778.01
2018-02-09T00:32:31.650Z,778
2018-02-09T00:32:35.326Z,778.02
2018-02-09T00:32:39.431Z,777.99
2018-02-09T00:32:43.430Z,778.01
2018-02-09T00:32:47.215Z,777.99
2018-02-09T00:32:51.109Z,778
2018-02-09T00:32:54.905Z,778.02
2018-02-09T00:32:58.800Z,778.03
2018-02-09T00:33:02.895Z,778.03
2018-02-09T00:33:06.681Z,778.01
2018-02-09T00:33:10.581Z,778
2018-02-09T00:33:14.575Z,777.99
2018-02-09T00:33:18.572Z,778.01
2018-02-09T00:33:22.680Z,778.01
2018-02-09T00:33:26.680Z,778
2018-02-09T00:33:30.778Z,778.02
2018-02-09T00:33:34.884Z,778.01
2018-02-09T00:33:38.676Z,778.03
2018-02-09T00:33:42.788Z,778
2018-02-09T00:33:46.894Z,778.01
2018-02-09T00:33:50.823Z,778.01
2018-02-09T00:33:54.818Z,777.99
2018-02-09T00:33:58.714Z,778.01
2018-02-09T00:34:02.820Z,778.02
2018-02-09T00:34:06.817Z,777.96
2018-02-09T00:34:10.813Z,777.99
2018-02-09T00:34:14.607Z,777.99
2018-02-09T00:34:18.503Z,778.01
2018-02-09T00:34:22.188Z,778.01
2018-02-09T00:34:25.978Z,777.95
2018-02-09T00:34:29.873Z,778
2018-02-09T00:34:33.664Z,777.95
2018-02-09T00:34:37.765Z,777.96
2018-02-09T00:34:41.912Z,777.9
2018-02-09T00:34:45.806Z,777.91
2018-02-09T00:34:49.595Z,777.88
2018-02-09T00:34:53.486Z,777.92
2018-02-09T00:34:57.385Z,777.93
2018-02-09T00:35:01.169Z,777.94
2018-02-09T00:35:05.369Z,777.92
2018-02-09T00:35:09.364Z,777.9
2018-02-09T00:35:13.156Z,777.88
2018-02-09T00:35:17.165Z,777.93
2018-02-09T00:35:20.953Z,777.9
2018-02-09T00:35:24.952Z,777.94
2018-02-09T00:35:28.944Z,777.94
2018-02-09T00:35:32.736Z,777.9
2018-02-09T00:35:36.421Z,777.87
2018-02-09T00:35:40.206Z,777.87
2018-02-09T00:35:44.103Z,777.89
2018-02-09T00:35:48.109Z,777.83
2018-02-09T00:35:52.104Z,777.88
2018-02-09T00:35:55.895Z,777.9
2018-02-09T00:35:59.789Z,777.92
2018-02-09T00:36:03.729Z,777.92
2018-02-09T00:36:07.526Z,777.88
2018-02-09T00:36:11.211Z,777.91
2018-02-09T00:36:15.107Z,777.96
2018-02-09T00:36:18.907Z,777.94
2018-02-09T00:36:22.802Z,777.91
2018-02-09T00:36:26.905Z,777.95
2018-02-09T00:36:30.802Z,777.94
2018-02-09T00:36:34.801Z,777.89
2018-02-09T00:36:38.797Z,777.87
2018-02-09T00:36:42.746Z,777.94
2018-02-09T00:36:46.528Z,777.94
2018-02-09T00:36:50.522Z,777.94
2018-02-09T00:36:54.415Z,777.92
2018-02-09T00:36:58.203Z,777.91
2018-02-09T00:37:02.499Z,777.92
2018-02-09T00:37:06.337Z,777.96
2018-02-09T00:37:10.339Z,777.94
2018-02-09T00:37:14.236Z,777.96
2018-02-09T00:37:18.025Z,777.94
2018-02-09T00:37:21.812Z,777.96
2018-02-09T00:37:25.953Z,777.94
2018-02-09T00:37:29.742Z,777.93
2018-02-09T00:37:33.634Z,777.95
2018-02-09T00:37:37.532Z,777.95
2018-02-09T00:37:41.335Z,777.93
2018-02-09T00:37:45.122Z,777.93
2018-02-09T00:37:49.218Z,777.92
2018-02-09T00:37:53.114Z,777.97
2018-02-09T00:37:56.909Z,777.96
2018-02-09T00:38:00.808Z,777.97
2018-02-09T00:38:05.073Z,777.97
2018-02-09T00:38:08.754Z,777.97
2018-02-09T00:38:12.762Z,777.96
2018-02-09T00:38:16.757Z,777.98
2018-02-09T00:38:20.543Z,777.97
2018-02-09T00:38:24.539Z,777.97
2018-02-09T00:38:28.226Z,778.02
2018-02-09T00:38:32.226Z,777.99
2018-02-09T00:38:36.232Z,778.03
2018-02-09T00:38:40.328Z,778.01
2018-02-09T00:38:44.432Z,778.01
2018-02-09T00:38:48.327Z,778.03
2018-02-09T00:38:52.110Z,778
2018-02-09T00:38:55.997Z,777.99
2018-02-09T00:38:59.884Z,778.01
2018-02-09T00:39:03.828Z,778
2018-02-09T00:39:07.616Z,777.98
2018-02-09T00:39:11.407Z,777.98
2018-02-09T00:39:15.288Z,778.02
2018-02-09T00:39:19.073Z,778
2018-02-09T00:39:23.078Z,778
2018-02-09T00:39:26.975Z,778.05
2018-02-09T00:39:30.764Z,778.04
2018-02-09T00:39:34.868Z,778.05
2018-02-09T00:39:38.860Z,778.02
2018-02-09T00:39:42.857Z,778.03
2018-02-09T00:39:46.855Z,778.05
2018-02-09T00:39:50.752Z,778.06
2018-02-09T00:39:54.533Z,778.04
2018-02-09T00:39:58.538Z,778.06
2018-02-09T00:40:02.632Z,778.04
2018-02-09T00:40:06.820Z,778.05
2018-02-09T00:40:10.838Z,778.01
2018-02-09T00:40:14.735Z,778.04
2018-02-09T00:40:18.417Z,778.05
2018-02-09T00:40:22.312Z,778.04
2018-02-09T00:40:26.211Z,778.04
2018-02-09T00:40:30.413Z,778.05
2018-02-09T00:40:34.306Z,778.04
2018-02-09T00:40:38.411Z,778.06
2018-02-09T00:40:42.408Z,778.05
2018-02-09T00:40:46.193Z,778.09
2018-02-09T00:40:50.400Z,778.04
2018-02-09T00:40:54.294Z,778.05
2018-02-09T00:40:58.077Z,778.1
2018-02-09T00:41:01.763Z,778.09
2018-02-09T00:41:05.859Z,778.03
2018-02-09T00:41:09.752Z,778.05
2018-02-09T00:41:13.873Z,778.06
2018-02-09T00:41:17.660Z,778.06
2018-02-09T00:41:21.446Z,778.07
2018-02-09T00:41:25.438Z,778.06
2018-02-09T00:41:29.546Z,778.04
2018-02-09T00:41:33.444Z,778.05
2018-02-09T00:41:37.232Z,778.08
2018-02-09T00:41:41.126Z,778.07
2018-02-09T00:41:44.808Z,778.07
2018-02-09T00:41:48.698Z,778.07
2018-02-09T00:41:52.482Z,778.08
2018-02-09T00:41:56.378Z,778.08
2018-02-09T00:42:00.391Z,778.07
2018-02-09T00:42:04.280Z,778.09
2018-02-09T00:42:08.068Z,778.09
2018-02-09T00:42:11.972Z,778.1
2018-02-09T00:42:16.086Z,778.13
2018-02-09T00:42:19.986Z,778.1
2018-02-09T00:42:23.877Z,778.09
2018-02-09T00:42:27.661Z,778.09
2018-02-09T00:42:31.776Z,778.12
2018-02-09T00:42:35.568Z,778.11
2018-02-09T00:42:39.363Z,778.12
2018-02-09T00:42:43.263Z,778.08
2018-02-09T00:42:47.265Z,778.08
2018-02-09T00:42:51.053Z,778.12
2018-02-09T00:42:54.847Z,778.09
2018-02-09T00:42:58.851Z,778.11
2018-02-09T00:43:02.954Z,778.09
2018-02-09T00:43:06.746Z,778.11
2018-02-09T00:43:10.527Z,778.11
2018-02-09T00:43:14.427Z,778.12
2018-02-09T00:43:18.424Z,778.13
2018-02-09T00:43:22.214Z,778.12
2018-02-09T00:43:26.108Z,778.1
2018-02-09T00:43:30.107Z,778.11
2018-02-09T00:43:33.892Z,778.07
2018-02-09T00:43:37.786Z,778.13
2018-02-09T00:43:41.788Z,778.15
2018-02-09T00:43:45.781Z,778.13
2018-02-09T00:43:49.780Z,778.16
2018-02-09T00:43:53.464Z,778.13
2018-02-09T00:43:57.355Z,778.14
2018-02-09T00:44:01.038Z,778.18
2018-02-09T00:44:04.938Z,778.19
2018-02-09T00:44:08.834Z,778.18
2018-02-09T00:44:12.625Z,778.18
2018-02-09T00:44:16.625Z,778.18
2018-02-09T00:44:20.518Z,778.2
2018-02-09T00:44:24.624Z,778.22
2018-02-09T00:44:28.623Z,778.2
2018-02-09T00:44:32.514Z,778.24
2018-02-09T00:44:36.306Z,778.24
2018-02-09T00:44:40.202Z,778.21
2018-02-09T00:44:44.211Z,778.21
2018-02-09T00:44:48.113Z,778.26
2018-02-09T00:44:52.110Z,778.22
2018-02-09T00:44:56.112Z,778.25
2018-02-09T00:45:00.109Z,778.22
2018-02-09T00:45:03.905Z,778.25
2018-02-09T00:45:07.701Z,778.26
2018-02-09T00:45:11.383Z,778.25
2018-02-09T00:45:15.593Z,778.25
2018-02-09T00:45:19.381Z,778.25
2018-02-09T00:45:23.373Z,778.25
2018-02-09T00:45:27.165Z,778.28
2018-02-09T00:45:31.164Z,778.28
2018-02-09T00:45:35.067Z,778.27
2018-02-09T00:45:39.073Z,778.28
2018-02-09T00:45:43.073Z,778.23
2018-02-09T00:45:46.966Z,778.28
2018-02-09T00:45:51.074Z,778.27
2018-02-09T00:45:54.980Z,778.27
2018-02-09T00:45:58.880Z,778.29
2018-02-09T00:46:02.979Z,778.28
2018-02-09T00:46:06.984Z,778.27
2018-02-09T00:46:10.770Z,778.26
2018-02-09T00:46:14.768Z,778.25
2018-02-09T00:46:18.763Z,778.29
2018-02-09T00:46:22.775Z,778.27
2018-02-09T00:46:26.567Z,778.27
2018-02-09T00:46:30.833Z,778.28
2018-02-09T00:46:34.834Z,778.29
2018-02-09T00:46:38.723Z,778.28
2018-02-09T00:46:42.616Z,778.29
2018-02-09T00:46:46.618Z,778.28
2018-02-09T00:46:50.510Z,778.28
2018-02-09T00:46:54.398Z,778.27
2018-02-09T00:46:58.192Z,778.29
2018-02-09T00:47:02.085Z,778.26
2018-02-09T00:47:06.082Z,778.27
2018-02-09T00:47:10.074Z,778.3
2018-02-09T00:47:14.175Z,778.28
2018-02-09T00:47:18.075Z,778.26
2018-02-09T00:47:21.972Z,778.24
2018-02-09T00:47:58.078Z,778.22
2018-02-09T00:48:02.278Z,778.22
2018-02-09T00:48:06.281Z,778.22
2018-02-09T00:48:10.185Z,778.23
2018-02-09T00:48:14.073Z,778.25
2018-02-09T00:48:18.175Z,778.21
2018-02-09T00:48:22.062Z,778.19
2018-02-09T00:48:25.853Z,778.24
2018-02-09T00:48:29.855Z,778.22
2018-02-09T00:48:33.643Z,778.2
2018-02-09T00:48:37.643Z,778.22
2018-02-09T00:48:41.429Z,778.21
2018-02-09T00:48:45.215Z,778.2
2018-02-09T00:48:49.104Z,778.16
2018-02-09T00:48:52.995Z,778.22
2018-02-09T00:48:56.684Z,778.18
2018-02-09T00:49:00.681Z,778.17
2018-02-09T00:49:04.412Z,778.18
2018-02-09T00:49:08.511Z,778.16
2018-02-09T00:49:12.406Z,778.14
2018-02-09T00:49:16.301Z,778.15
2018-02-09T00:49:19.979Z,778.13
2018-02-09T00:49:23.767Z,778.13
2018-02-09T00:49:27.952Z,778.12
2018-02-09T00:49:31.744Z,778.13
2018-02-09T00:49:35.537Z,778.1